Oakland, CA

4:35 PM PDT on August 03, 2015 (GMT -0700)
ALLENDALE | | Change Station
CLOSE
Current Station
Personal Weather Station
Location: Oakland, CA
Elevation: 141 ft
Nearby Weather Stations

Elev 141 ft 37.79 °N, 122.20 °W | Updated 34 seconds ago

Partly Cloudy
Partly Cloudy
83.5 °F
Feels Like 83 °F
N
4.7
Wind Variable Wind from East

Today
High -- | Low -- °F
--% Chance of Precip.
Yesterday
High -- | Low -- °F
Precip. -- in
6:13 AM 8:15 PM
Waning Gibbous, 83% visible
Pressure 29.95 in
Visibility 10.0 miles
Clouds Few 2400 ft
Scattered Clouds 20000 ft
Heat Index 83 °F
Dew Point 57 °F
Humidity 40%
Rainfall 0.00 in
Snow Depth Not available.
UV 6 out of 12
Pollen 4.30 out of 12
Air Quality Not available.
Flu Activity Not available.
METAR KOAK 032253Z 26016KT 10SM FEW024 SCT200 23/12 A2995 RMK AO2 SLP140 T02330122

More Conditions Fewer Conditions

Pressure 29.95 in
Visibility 10.0 miles
Clouds Few 2400 ft
Scattered Clouds 20000 ft
Heat Index 83 °F
Dew Point 57 °F
Humidity 40%
Rainfall 0.00 in
Snow Depth Not available.
UV 6 out of 12
Pollen 4.30 out of 12
Air Quality Not available.
Flu Activity Not available.
METAR KOAK 032253Z 26016KT 10SM FEW024 SCT200 23/12 A2995 RMK AO2 SLP140 T02330122

More Conditions Fewer Conditions

10-Day Weather Forecast

×

Almanac

Astronomy

Aug. 03, 2015 Rise Set
Actual Time
Civil Twilight
Nautical Twilight
Astronomical Twilight
Moon
Length of Visible Light
Length of Day
Tomorrow will be .
, % of the Moon is Illuminated

Today's Extremes

State Highs State Lows

Community

WunderPhotos

Upload Photos

1,843,790 photos uploaded!

WunderBlogs® & News

Nearby

Air Quality

  Air Quality AQ Index Pollutant
Not available.

Snow Depth

Station Depth Elevation

Earthquake Activity

City Distance Mag. Time & Date
Minimum magnitude displayed is 2.5.

Coastal Water Temperatures

Place Temperature

Stations

Nearby Weather Stations

Station Location Temp. Windchill Dew Point Humidity Wind Precip. Elev Updated Type